West Tisbury, MA

2:51 AM EDT on April 26, 2017 (GMT -0400)
| | Change Station

Elev -9999 ft 0.00 °N, 0.00 °E | Updated

Overcast
Overcast
°F
Feels Like °F
N
Wind Variable Wind from North
Gusts mph

Today
High -- | Low -- °F
--% Chance of Precip.
Yesterday
High -- | Low -- °F
Precip. -- in
Pressure 29.93 in
Visibility 10.0 miles
Clouds Mostly Cloudy 300 ft
Overcast 5500 ft
Dew Point Not available.
Humidity Not available.
Rainfall --
Snow Depth Not available.
5:46 AM 7:35 PM
Waning Crescent, 0% visible
METAR KMVY 260553Z AUTO 11020G32KT 10SM BKN003 OVC055 13/13 A2993 RMK AO2 PK WND 11032/0545 RAB34E44 SLP134 P0000 60009 T01330128 10133 20117 58023 TSNO
Pressure 29.93 in
Visibility 10.0 miles
Clouds Mostly Cloudy 300 ft
Overcast 5500 ft
Dew Point Not available.
Humidity Not available.
Rainfall --
Snow Depth Not available.
5:46 AM 7:35 PM
Waning Crescent, 0% visible
METAR KMVY 260553Z AUTO 11020G32KT 10SM BKN003 OVC055 13/13 A2993 RMK AO2 PK WND 11032/0545 RAB34E44 SLP134 P0000 60009 T01330128 10133 20117 58023 TSNO

Get Severe Weather Alerts

Thanks for signing up!

Be on the lookout for a verification email in your inbox.

You'll start receiving the daily forecast at 8 AM.

×

10-Day Weather Forecast

Almanac

Astronomy

Apr. 26, 2017 Rise Set
Actual Time
Civil Twilight
Nautical Twilight
Astronomical Twilight
Moon
Length of Visible Light
Length of Day
Tomorrow will be .
, % of the Moon is Illuminated

Today's Extremes

State Highs State Lows

Community

WunderPhotos

WunderBlog® & News

Nearby

Air Quality

  Air Quality AQ Index Pollutant
Not available.

Snow Depth

Station Depth Elevation

Earthquake Activity

City Distance Mag. Time & Date
Minimum magnitude displayed is 2.5.

Coastal Water Temperatures

Place Temperature

Stations

Nearby Weather Stations

Station Location Temp. Windchill Dew Point Humidity Wind Precip. Elev Updated Type
                   

Watches & Warnings

There are currently no watches in effect.